Time;durP1;ratioP1;P1;durP2;ratioP2;P2;SDS_P1;SDS_P2;PMS_P1;PMS_P2;Temp;Humidity;BMP_temperature;BMP_pressure;BME280_temperature;BME280_humidity;BME280_pressure;Samples;Min_cycle;Max_cycle;Signal;HPM_P1;HPM_P2
2022/05/28 00:01:34;;;;;;;7.60;1.55;;;16.10;91.70;;;;;;5036668;28;20108;-60
2022/05/28 00:04:04;;;;;;;2.83;1.17;;;16.10;91.70;;;;;;5036121;28;20026;-58
2022/05/28 00:06:32;;;;;;;7.63;1.70;;;16.10;91.70;;;;;;5036204;28;20017;-59
2022/05/28 00:08:59;;;;;;;8.15;1.73;;;16.10;91.90;;;;;;5036449;28;20143;-60
2022/05/28 00:11:31;;;;;;;9.98;2.28;;;16.00;91.50;;;;;;5036013;28;20060;-59
2022/05/28 00:13:57;;;;;;;11.95;2.13;;;15.90;91.70;;;;;;5036442;28;20427;-56
2022/05/28 00:16:23;;;;;;;8.48;1.85;;;15.90;91.80;;;;;;5035704;28;20079;-59
2022/05/28 00:18:51;;;;;;;9.85;1.80;;;15.90;91.80;;;;;;5035789;28;20029;-58
2022/05/28 00:21:18;;;;;;;6.68;1.63;;;15.80;91.90;;;;;;5035722;28;20468;-59
2022/05/28 00:23:44;;;;;;;9.90;1.77;;;15.90;92.00;;;;;;5035661;28;20175;-59
2022/05/28 00:26:10;;;;;;;4.93;1.33;;;15.90;92.00;;;;;;5035612;28;20088;-60
2022/05/28 00:28:36;;;;;;;9.77;1.63;;;15.80;91.90;;;;;;5035794;28;20057;-60
2022/05/28 00:31:02;;;;;;;6.38;1.70;;;15.80;92.00;;;;;;5037231;28;20472;-60
2022/05/28 00:33:30;;;;;;;7.25;1.77;;;15.70;91.80;;;;;;5038271;28;20029;-60
2022/05/28 00:35:56;;;;;;;8.25;1.75;;;15.60;92.10;;;;;;5036714;28;20325;-60
2022/05/28 00:38:24;;;;;;;7.47;1.52;;;15.60;92.10;;;;;;5036063;28;20029;-59
2022/05/28 00:40:52;;;;;;;10.93;1.42;;;15.60;92.30;;;;;;5035490;28;20053;-59
2022/05/28 00:43:19;;;;;;;6.63;1.58;;;15.60;92.40;;;;;;5035597;28;20053;-59
2022/05/28 00:45:45;;;;;;;;;;;15.70;92.40;;;;;;5036240;28;20088;-57
2022/05/28 00:48:15;;;;;;;9.68;1.80;;;15.70;92.30;;;;;;5035838;28;20382;-62
2022/05/28 00:50:41;;;;;;;8.70;2.00;;;15.80;92.10;;;;;;5035559;28;20114;-59
2022/05/28 00:53:07;;;;;;;8.32;1.70;;;15.60;92.20;;;;;;5035429;28;20029;-59
2022/05/28 00:55:34;;;;;;;14.25;2.33;;;15.50;92.30;;;;;;5035233;28;20033;-59
2022/05/28 00:58:03;;;;;;;8.75;1.80;;;15.40;92.40;;;;;;5034955;28;20154;-59
2022/05/28 01:00:28;;;;;;;7.80;1.90;;;15.40;92.90;;;;;;5035513;28;20037;-59
2022/05/28 01:03:17;;;;;;;7.47;2.30;;;15.30;92.70;;;;;;5034919;28;20029;-60
2022/05/28 01:06:17;;;;;;;6.70;2.05;;;15.30;92.80;;;;;;5035314;28;20072;-57
2022/05/28 01:09:36;;;;;;;5.70;1.48;;;15.20;92.90;;;;;;5034359;28;20041;-60
2022/05/28 01:12:10;;;;;;;9.88;2.33;;;15.10;93.10;;;;;;5010455;28;20480;-60
2022/05/28 01:14:45;;;;;;;7.47;1.92;;;15.10;93.20;;;;;;5035143;28;20029;-61
2022/05/28 01:17:16;;;;;;;10.15;2.22;;;15.10;93.30;;;;;;5035672;28;20026;-60
2022/05/28 01:20:01;;;;;;;9.35;1.90;;;15.10;93.30;;;;;;5035510;28;20029;-60
2022/05/28 01:22:54;;;;;;;7.50;1.65;;;15.00;93.40;;;;;;5034649;28;20037;-60
2022/05/28 01:25:44;;;;;;;8.15;1.70;;;14.90;93.60;;;;;;5034875;28;20026;-59
2022/05/28 01:28:14;;;;;;;6.50;1.38;;;14.80;93.80;;;;;;5034582;28;20051;-59
2022/05/28 01:30:42;;;;;;;5.93;1.75;;;14.70;94.00;;;;;;5035040;28;20018;-59
2022/05/28 01:33:09;;;;;;;8.25;1.77;;;14.70;94.10;;;;;;5034399;28;20025;-60
2022/05/28 01:35:36;;;;;;;8.93;2.00;;;14.60;93.60;;;;;;5034513;28;20033;-61
2022/05/28 01:38:04;;;;;;;6.57;1.70;;;14.60;93.70;;;;;;5016559;28;20057;-60
2022/05/28 01:40:32;;;;;;;8.63;1.52;;;14.60;93.60;;;;;;5034317;28;20080;-61
2022/05/28 01:43:00;;;;;;;6.40;1.85;;;14.60;93.50;;;;;;5034854;28;20435;-59
2022/05/28 01:45:29;;;;;;;7.03;1.35;;;14.60;93.50;;;;;;5034054;28;20025;-58
2022/05/28 01:47:58;;;;;;;5.78;1.48;;;14.60;93.10;;;;;;5034378;28;20029;-57
2022/05/28 01:50:25;;;;;;;8.60;1.35;;;14.60;93.10;;;;;;5034041;28;20025;-60
2022/05/28 01:52:52;;;;;;;10.40;1.65;;;14.60;93.30;;;;;;5034219;28;20025;-59
2022/05/28 01:55:21;;;;;;;6.35;1.23;;;14.70;93.10;;;;;;5034814;28;20022;-58
2022/05/28 01:57:47;;;;;;;7.30;1.42;;;14.80;93.10;;;;;;5033873;28;20502;-59
2022/05/28 02:00:13;;;;;;;4.77;1.73;;;14.90;93.00;;;;;;5033922;28;20041;-59
2022/05/28 02:02:39;;;;;;;4.95;1.27;;;14.90;92.70;;;;;;5033755;28;20033;-58
2022/05/28 02:05:05;;;;;;;9.65;1.20;;;14.90;92.50;;;;;;5034050;28;20033;-59
2022/05/28 02:07:31;;;;;;;4.57;1.30;;;15.00;92.40;;;;;;5033375;28;20035;-57
2022/05/28 02:10:18;;;;;;;4.32;1.52;;;14.90;92.20;;;;;;5033830;28;20087;-60
2022/05/28 02:12:57;;;;;;;5.32;1.10;;;14.80;91.80;;;;;;5033466;28;20124;-59
2022/05/28 02:15:52;;;;;;;7.32;1.65;;;14.70;91.70;;;;;;5033879;28;20053;-59
2022/05/28 02:18:28;;;;;;;4.13;1.85;;;14.60;92.00;;;;;;5032267;28;20046;-60
2022/05/28 02:21:05;;;;;;;6.47;1.75;;;14.50;92.20;;;;;;5033710;28;20186;-58
2022/05/28 02:24:03;;;;;;;5.90;1.60;;;14.40;92.40;;;;;;5033354;28;20053;-60
2022/05/28 02:26:31;;;;;;;5.88;1.92;;;14.30;92.50;;;;;;5011199;28;20079;-61
2022/05/28 02:28:59;;;;;;;7.88;1.20;;;14.20;92.40;;;;;;5033485;28;20034;-61
2022/05/28 02:31:33;;;;;;;10.05;1.77;;;14.30;92.40;;;;;;5033049;28;20022;-58
2022/05/28 02:33:59;;;;;;;5.07;1.30;;;14.20;92.40;;;;;;5033166;28;20025;-61
2022/05/28 02:36:26;;;;;;;5.78;1.33;;;14.30;92.30;;;;;;5032909;28;20100;-58
2022/05/28 02:38:52;;;;;;;6.97;1.73;;;14.30;92.30;;;;;;5032704;28;20026;-60
2022/05/28 02:41:19;;;;;;;6.75;1.92;;;14.40;92.10;;;;;;5033014;28;20044;-60
2022/05/28 02:43:45;;;;;;;9.35;1.23;;;14.50;92.20;;;;;;5033122;28;20101;-60
2022/05/28 02:46:10;;;;;;;5.72;1.58;;;14.60;91.80;;;;;;5033288;28;20456;-62
2022/05/28 02:48:36;;;;;;;6.43;1.15;;;14.50;91.40;;;;;;5032714;28;20022;-60
2022/05/28 02:51:08;;;;;;;6.60;1.80;;;14.40;91.70;;;;;;5014918;28;20388;-59
2022/05/28 02:53:34;;;;;;;5.78;1.10;;;14.50;91.70;;;;;;5032975;28;20068;-61
2022/05/28 02:55:59;;;;;;;6.28;1.15;;;14.50;91.50;;;;;;5033151;28;20038;-57
2022/05/28 02:58:26;;;;;;;8.07;2.17;;;14.40;91.60;;;;;;5032361;28;20415;-61
2022/05/28 03:00:51;;;;;;;8.02;1.42;;;14.40;91.80;;;;;;5032810;28;20481;-61
2022/05/28 03:03:19;;;;;;;5.15;1.30;;;14.40;91.80;;;;;;5032725;28;20045;-61
2022/05/28 03:05:47;;;;;;;4.13;0.98;;;14.30;91.60;;;;;;5032547;28;20113;-61
2022/05/28 03:08:13;;;;;;;4.93;1.40;;;14.20;91.80;;;;;;5033039;28;20025;-58
2022/05/28 03:10:38;;;;;;;6.50;1.20;;;14.20;92.00;;;;;;5033083;28;20026;-60
2022/05/28 03:13:06;;;;;;;5.97;1.27;;;14.10;92.20;;;;;;5032921;28;20321;-62
2022/05/28 03:15:32;;;;;;;5.28;1.20;;;14.00;92.20;;;;;;5033260;28;20032;-61
2022/05/28 03:17:59;;;;;;;4.47;1.15;;;14.30;92.50;;;;;;5032688;28;20037;-60
2022/05/28 03:20:26;;;;;;;8.60;1.42;;;14.30;92.40;;;;;;5036680;28;20022;-60
2022/05/28 03:22:51;;;;;;;;;;;14.20;92.20;;;;;;5019450;28;20029;-55
2022/05/28 03:25:17;;;;;;;5.50;1.40;;;14.00;92.20;;;;;;5036954;28;20004;-59
2022/05/28 03:27:43;;;;;;;4.32;1.50;;;14.10;92.30;;;;;;5036338;28;20049;-60
2022/05/28 03:30:09;;;;;;;7.33;1.77;;;14.00;92.30;;;;;;5036212;28;20393;-60
2022/05/28 03:32:35;;;;;;;8.13;1.88;;;14.00;92.40;;;;;;5036328;28;20112;-61
2022/05/28 03:35:00;;;;;;;5.90;1.25;;;14.10;92.50;;;;;;5036571;28;20072;-62
2022/05/28 03:37:26;;;;;;;5.53;1.13;;;14.00;92.60;;;;;;5036244;28;20022;-62
2022/05/28 03:39:52;;;;;;;8.53;1.50;;;13.90;92.60;;;;;;5036149;28;20042;-60
2022/05/28 03:42:17;;;;;;;4.17;1.00;;;13.80;92.90;;;;;;5036077;28;20079;-60
2022/05/28 03:44:43;;;;;;;5.18;1.10;;;13.70;93.10;;;;;;5036680;28;20087;-62
2022/05/28 03:47:08;;;;;;;6.03;1.33;;;13.80;93.10;;;;;;5037415;28;20070;-61
2022/05/28 03:49:37;;;;;;;6.53;1.10;;;13.70;93.10;;;;;;5036073;28;20038;-59
2022/05/28 03:52:04;;;;;;;5.57;1.30;;;13.70;93.10;;;;;;5036280;28;20028;-60
2022/05/28 03:54:30;;;;;;;5.22;1.25;;;13.70;93.20;;;;;;5036239;28;20033;-56
2022/05/28 03:57:00;;;;;;;5.50;1.10;;;13.80;93.20;;;;;;5035968;28;20026;-60
2022/05/28 03:59:25;;;;;;;10.20;1.63;;;13.70;93.20;;;;;;5035942;28;20112;-59
2022/05/28 04:01:53;;;;;;;6.57;1.20;;;13.70;93.30;;;;;;5036132;28;20048;-60
2022/05/28 04:04:19;;;;;;;4.75;1.63;;;13.70;93.10;;;;;;5036101;28;20087;-61
2022/05/28 04:06:44;;;;;;;5.30;1.15;;;13.60;93.30;;;;;;5035933;28;20033;-60
2022/05/28 04:09:10;;;;;;;4.72;1.50;;;13.50;93.20;;;;;;5035848;28;20033;-60
2022/05/28 04:11:36;;;;;;;14.48;4.90;;;13.50;93.40;;;;;;5018661;28;20060;-58
2022/05/28 04:14:02;;;;;;;3.50;1.23;;;13.40;93.40;;;;;;5036432;28;20480;-58
2022/05/28 04:16:27;;;;;;;3.92;1.20;;;13.40;93.40;;;;;;5035982;28;20026;-60
2022/05/28 04:18:53;;;;;;;7.93;1.20;;;13.30;93.60;;;;;;5036062;28;20095;-60
2022/05/28 04:21:18;;;;;;;4.50;1.03;;;13.20;93.80;;;;;;5035785;28;20029;-60
2022/05/28 04:23:44;;;;;;;5.85;1.30;;;13.20;94.10;;;;;;5035813;28;20735;-61
2022/05/28 04:26:10;;;;;;;5.95;1.30;;;13.20;94.30;;;;;;5036348;28;20037;-58
2022/05/28 04:28:36;;;;;;;7.20;1.40;;;13.20;94.10;;;;;;5035639;28;20490;-62
2022/05/28 04:31:02;;;;;;;6.65;1.23;;;13.30;94.30;;;;;;5034935;28;20072;-66
2022/05/28 04:33:27;;;;;;;4.43;1.10;;;13.30;94.40;;;;;;5035619;28;20400;-63
2022/05/28 04:35:53;;;;;;;5.53;1.77;;;13.50;94.30;;;;;;5035470;28;20110;-63
2022/05/28 04:38:19;;;;;;;8.18;1.30;;;13.40;94.30;;;;;;5035781;28;20037;-62
2022/05/28 04:40:44;;;;;;;4.45;1.45;;;13.50;94.10;;;;;;5035547;28;20030;-61
2022/05/28 04:43:10;;;;;;;10.10;1.13;;;13.70;94.00;;;;;;5035452;28;20037;-57
2022/05/28 04:45:35;;;;;;;6.03;1.70;;;13.70;93.60;;;;;;5035645;28;20049;-58
2022/05/28 04:48:01;;;;;;;5.70;1.40;;;13.60;93.90;;;;;;5034905;28;20048;-60
2022/05/28 04:50:27;;;;;;;6.77;1.30;;;13.50;94.00;;;;;;5035145;28;20029;-60
2022/05/28 04:52:52;;;;;;;5.55;1.15;;;13.50;94.10;;;;;;5034970;28;20022;-59
2022/05/28 04:55:18;;;;;;;4.33;1.37;;;13.80;94.10;;;;;;5035654;28;20108;-60
2022/05/28 04:57:43;;;;;;;7.20;1.17;;;13.80;93.90;;;;;;5034967;28;20341;-60
2022/05/28 05:00:21;;;;;;;3.97;1.13;;;13.80;93.80;;;;;;5017190;28;20041;-62
2022/05/28 05:02:47;;;;;;;7.22;1.40;;;13.80;93.70;;;;;;5035255;28;20291;-59
2022/05/28 05:05:13;;;;;;;8.18;1.17;;;14.00;93.50;;;;;;5035155;28;20025;-61
2022/05/28 05:07:38;;;;;;;4.80;1.07;;;13.90;93.40;;;;;;5034960;28;20030;-60
2022/05/28 05:10:05;;;;;;;3.33;0.90;;;13.90;93.50;;;;;;5034958;28;20022;-61
2022/05/28 05:12:30;;;;;;;6.00;1.55;;;13.80;93.50;;;;;;5034491;28;20060;-58
2022/05/28 05:14:56;;;;;;;4.43;1.07;;;13.80;93.50;;;;;;5034503;28;20017;-62
2022/05/28 05:17:21;;;;;;;4.93;1.23;;;13.80;93.60;;;;;;5034810;28;20032;-61
2022/05/28 05:19:47;;;;;;;8.20;1.10;;;13.80;93.80;;;;;;5034436;28;20488;-62
2022/05/28 05:22:13;;;;;;;3.83;0.90;;;13.80;94.10;;;;;;5034794;28;20025;-59
2022/05/28 05:24:38;;;;;;;6.95;1.50;;;13.80;93.70;;;;;;5034131;28;20029;-59
2022/05/28 05:27:04;;;;;;;7.23;1.47;;;14.00;93.20;;;;;;5035246;28;20080;-59
2022/05/28 05:29:30;;;;;;;6.22;1.80;;;14.00;93.40;;;;;;5034554;28;20596;-61
2022/05/28 05:31:56;;;;;;;5.00;1.48;;;14.00;93.10;;;;;;5034287;28;20057;-61
2022/05/28 05:34:22;;;;;;;4.10;1.15;;;14.10;93.30;;;;;;5034151;28;20048;-60
2022/05/28 05:36:49;;;;;;;5.47;1.00;;;14.10;92.60;;;;;;5034292;28;20108;-61
2022/05/28 05:39:14;;;;;;;5.50;1.30;;;14.00;92.80;;;;;;5033806;28;20029;-61
2022/05/28 05:41:42;;;;;;;7.03;1.27;;;14.00;93.00;;;;;;5033073;28;20096;-62
2022/05/28 05:44:08;;;;;;;4.72;1.30;;;14.00;93.00;;;;;;5033798;28;20034;-60
2022/05/28 05:46:34;;;;;;;;;;;14.00;92.60;;;;;;5034242;28;20061;-62
2022/05/28 05:49:00;;;;;;;8.98;1.33;;;14.00;92.50;;;;;;5033811;28;19905;-60
2022/05/28 05:51:28;;;;;;;4.50;1.30;;;14.00;92.70;;;;;;5033793;28;20075;-60
2022/05/28 05:53:53;;;;;;;8.18;1.85;;;14.00;92.40;;;;;;5033492;28;20484;-61
2022/05/28 05:56:19;;;;;;;6.03;1.83;;;13.90;92.40;;;;;;5033534;28;20032;-61
2022/05/28 05:58:44;;;;;;;5.03;1.30;;;14.00;92.40;;;;;;5033655;28;20362;-61
2022/05/28 06:01:10;;;;;;;5.03;1.10;;;14.00;92.40;;;;;;5033908;28;20034;-56
2022/05/28 06:03:38;;;;;;;5.33;1.10;;;14.10;92.50;;;;;;5033554;28;20026;-60
2022/05/28 06:06:05;;;;;;;3.80;0.85;;;14.10;92.40;;;;;;5033602;28;20045;-56
2022/05/28 06:08:31;;;;;;;4.28;1.30;;;14.20;92.40;;;;;;5033628;28;20417;-58
2022/05/28 06:10:57;;;;;;;5.95;1.27;;;14.30;92.00;;;;;;5033508;28;20531;-60
2022/05/28 06:13:23;;;;;;;8.00;1.93;;;14.30;91.80;;;;;;5033472;28;20057;-61
2022/05/28 06:15:49;;;;;;;2.60;0.90;;;14.30;91.70;;;;;;5033855;28;20298;-59
2022/05/28 06:18:16;;;;;;;4.63;1.20;;;14.40;91.50;;;;;;5033173;28;20108;-61
2022/05/28 06:20:42;;;;;;;5.78;1.00;;;14.30;91.40;;;;;;5033718;28;20025;-59
2022/05/28 06:23:08;;;;;;;6.88;1.27;;;14.40;91.50;;;;;;5015518;28;20030;-60
2022/05/28 06:25:36;;;;;;;5.05;1.33;;;14.40;91.30;;;;;;5032979;28;20504;-62
2022/05/28 06:28:01;;;;;;;6.85;1.27;;;14.50;91.10;;;;;;5034044;28;20361;-59
2022/05/28 06:30:27;;;;;;;9.03;1.23;;;14.60;90.70;;;;;;5033301;28;20028;-60
2022/05/28 06:32:52;;;;;;;4.40;1.70;;;14.80;90.40;;;;;;5033397;28;20361;-61
2022/05/28 06:35:18;;;;;;;3.35;0.90;;;14.80;90.50;;;;;;5033444;28;20029;-60
2022/05/28 06:37:44;;;;;;;7.53;1.00;;;14.90;90.60;;;;;;5033084;28;20041;-61
2022/05/28 06:40:10;;;;;;;4.93;1.13;;;14.90;90.60;;;;;;5033551;28;20104;-61
2022/05/28 06:42:35;;;;;;;;;;;14.80;90.50;;;;;;5033524;28;20025;-62
2022/05/28 06:45:01;;;;;;;5.47;1.20;;;14.90;90.90;;;;;;5033595;28;20275;-58
2022/05/28 06:47:27;;;;;;;5.80;1.27;;;14.90;90.80;;;;;;5033115;28;20029;-62
2022/05/28 06:52:45;;;;;;;4.65;1.35;;;14.80;91.20;;;;;;5017075;28;20044;-61
2022/05/28 06:55:11;;;;;;;5.05;1.33;;;14.80;90.80;;;;;;5033666;28;20113;-59
2022/05/28 06:57:36;;;;;;;5.43;1.00;;;14.90;90.70;;;;;;5033120;28;20072;-61
2022/05/28 07:00:03;;;;;;;5.13;1.10;;;14.90;91.10;;;;;;5015589;28;20025;-60
2022/05/28 07:02:28;;;;;;;3.88;0.90;;;15.00;91.10;;;;;;5033385;28;20025;-61
2022/05/28 07:04:54;;;;;;;7.77;1.47;;;15.10;90.70;;;;;;5033318;28;20052;-60
2022/05/28 07:07:19;;;;;;;7.43;1.30;;;15.10;91.10;;;;;;5033768;28;20048;-59
2022/05/28 07:09:46;;;;;;;4.83;1.20;;;15.10;90.50;;;;;;5033045;28;20037;-61
2022/05/28 07:12:11;;;;;;;5.30;0.98;;;15.20;90.30;;;;;;5033505;28;20384;-60
2022/05/28 07:14:37;;;;;;;3.67;0.87;;;15.30;90.40;;;;;;5032994;28;20053;-58
2022/05/28 07:17:03;;;;;;;6.10;1.35;;;15.50;90.20;;;;;;5033014;28;20052;-61
2022/05/28 07:19:29;;;;;;;9.88;1.67;;;15.50;90.00;;;;;;5032699;28;20033;-61
2022/05/28 07:21:55;;;;;;;;;;;15.60;89.10;;;;;;5033003;28;20045;-61
2022/05/28 07:24:20;;;;;;;5.38;1.52;;;15.70;88.70;;;;;;5033076;28;19979;-63
2022/05/28 07:26:51;;;;;;;6.20;1.60;;;15.80;88.20;;;;;;5032800;28;20017;-61
2022/05/28 07:29:17;;;;;;;4.97;1.20;;;16.00;87.70;;;;;;5032705;28;20041;-61
2022/05/28 07:31:42;;;;;;;3.75;0.90;;;16.00;86.40;;;;;;5033295;28;20389;-61
2022/05/28 07:34:08;;;;;;;9.07;1.20;;;16.10;86.70;;;;;;5032944;28;20037;-61
2022/05/28 07:36:35;;;;;;;5.53;1.25;;;16.20;85.80;;;;;;5033316;28;20018;-63
2022/05/28 07:39:02;;;;;;;3.85;1.23;;;16.40;86.10;;;;;;5032752;28;20017;-63
2022/05/28 07:41:28;;;;;;;3.50;0.82;;;16.50;85.60;;;;;;5032749;28;20041;-62
2022/05/28 07:43:55;;;;;;;6.53;1.37;;;16.40;87.20;;;;;;5032616;28;20473;-63
2022/05/28 07:46:24;;;;;;;3.58;1.10;;;16.60;86.60;;;;;;5032798;28;20037;-62
2022/05/28 07:48:52;;;;;;;5.82;1.38;;;16.60;85.60;;;;;;5032939;28;20054;-64
2022/05/28 07:51:18;;;;;;;5.90;2.00;;;16.70;85.80;;;;;;5032714;28;20018;-63
2022/05/28 07:53:43;;;;;;;5.20;1.67;;;16.90;85.80;;;;;;5032754;28;20022;-64
2022/05/28 07:56:10;;;;;;;5.20;1.20;;;17.00;85.50;;;;;;5033688;28;20026;-64
2022/05/28 07:58:36;;;;;;;;;;;17.10;85.00;;;;;;5033133;28;20041;-63
2022/05/28 08:01:04;;;;;;;5.63;1.20;;;17.10;84.70;;;;;;5032644;28;19936;-63
2022/05/28 08:03:30;;;;;;;3.60;1.00;;;17.10;84.90;;;;;;5032532;28;20492;-62
2022/05/28 08:05:56;;;;;;;7.10;1.08;;;17.30;84.30;;;;;;5034848;28;20096;-62
2022/05/28 08:08:25;;;;;;;4.15;1.20;;;18.00;83.90;;;;;;5035762;28;20030;-63
2022/05/28 08:10:51;;;;;;;5.63;1.45;;;19.70;82.90;;;;;;5035552;28;20473;-63
2022/05/28 08:13:20;;;;;;;5.95;1.50;;;21.60;76.60;;;;;;5035668;28;20514;-64
2022/05/28 08:15:48;;;;;;;3.95;1.20;;;23.00;72.30;;;;;;5035611;28;20026;-63
2022/05/28 08:18:17;;;;;;;3.20;0.95;;;24.70;67.60;;;;;;5035420;28;20499;-62
2022/05/28 08:23:27;;;;;;;4.93;1.63;;;27.50;60.80;;;;;;5036049;28;20037;-60
2022/05/28 08:25:52;;;;;;;4.85;1.45;;;28.60;57.80;;;;;;5036372;28;20033;-62
2022/05/28 08:28:19;;;;;;;5.20;1.23;;;29.50;56.10;;;;;;5035209;28;20024;-62
2022/05/28 08:30:46;;;;;;;4.07;1.67;;;30.00;54.70;;;;;;5035532;28;20029;-62
2022/05/28 08:33:13;;;;;;;4.72;1.40;;;29.90;52.60;;;;;;5035802;28;20037;-61
2022/05/28 08:35:40;;;;;;;3.45;1.30;;;28.20;53.60;;;;;;5035550;28;20018;-60
2022/05/28 08:38:12;;;;;;;4.35;1.23;;;28.50;53.80;;;;;;5035554;28;20021;-60
2022/05/28 08:40:51;;;;;;;5.10;1.30;;;29.40;53.10;;;;;;5035270;28;20030;-62
2022/05/28 08:43:18;;;;;;;4.70;1.80;;;29.50;51.60;;;;;;5035134;28;20045;-61
2022/05/28 08:45:49;;;;;;;4.38;1.10;;;28.80;51.90;;;;;;5035115;28;20030;-63
2022/05/28 08:48:20;;;;;;;4.90;1.48;;;29.90;51.10;;;;;;5035016;28;20033;-61
2022/05/28 08:50:55;;;;;;;4.75;1.27;;;30.50;50.00;;;;;;5035111;28;20022;-61
2022/05/28 08:53:26;;;;;;;3.38;1.45;;;30.70;50.40;;;;;;5035630;28;20072;-62
2022/05/28 08:55:53;;;;;;;4.93;1.30;;;30.70;49.10;;;;;;5035035;28;20025;-61
2022/05/28 08:58:23;;;;;;;7.43;1.80;;;30.60;50.10;;;;;;5035316;28;20400;-62
2022/05/28 09:01:08;;;;;;;7.45;1.40;;;31.30;49.40;;;;;;5035131;28;20032;-61
2022/05/28 09:03:57;;;;;;;4.95;1.50;;;31.80;48.40;;;;;;5035769;28;20405;-63
2022/05/28 09:06:46;;;;;;;5.95;1.40;;;29.70;48.80;;;;;;5034809;28;20029;-62
2022/05/28 09:09:14;;;;;;;7.53;1.70;;;26.90;51.70;;;;;;5035045;28;20025;-63
2022/05/28 09:11:56;;;;;;;8.27;2.00;;;25.00;54.90;;;;;;5034303;28;20029;-63
2022/05/28 09:14:32;;;;;;;5.05;1.40;;;23.80;55.70;;;;;;5035002;28;20022;-62
2022/05/28 09:17:08;;;;;;;5.40;1.50;;;23.00;57.00;;;;;;5034761;28;20025;-61
2022/05/28 09:19:42;;;;;;;6.28;1.50;;;23.20;57.30;;;;;;5034632;28;20021;-61
2022/05/28 09:22:08;;;;;;;5.72;1.70;;;24.70;55.40;;;;;;5034716;28;20057;-62
2022/05/28 09:24:34;;;;;;;6.82;1.70;;;26.40;53.80;;;;;;5034392;28;20038;-62
2022/05/28 09:27:22;;;;;;;4.47;1.55;;;27.40;52.40;;;;;;5034485;28;20128;-63
2022/05/28 09:30:24;;;;;;;4.88;1.50;;;26.70;52.40;;;;;;5034731;28;20080;-63
2022/05/28 09:33:18;;;;;;;5.97;0.98;;;25.90;52.20;;;;;;5034666;28;20107;-62
2022/05/28 09:35:58;;;;;;;5.82;1.50;;;23.90;54.60;;;;;;5034484;28;20029;-62
2022/05/28 09:38:39;;;;;;;3.15;1.55;;;22.70;57.40;;;;;;5034572;28;20021;-62
2022/05/28 09:41:20;;;;;;;4.15;1.27;;;21.70;58.40;;;;;;5034257;28;20032;-60
2022/05/28 09:44:08;;;;;;;6.10;1.20;;;21.10;59.30;;;;;;5034379;28;20028;-58
2022/05/28 09:46:37;;;;;;;2.97;1.10;;;21.30;59.20;;;;;;5034215;28;20506;-63
2022/05/28 09:49:24;;;;;;;4.68;1.25;;;21.40;58.20;;;;;;5016147;28;20047;-61
2022/05/28 09:52:05;;;;;;;4.72;1.50;;;21.00;59.30;;;;;;5033889;28;20017;-63
2022/05/28 09:54:33;;;;;;;9.18;1.55;;;20.80;60.40;;;;;;5033895;28;20120;-63
2022/05/28 09:57:09;;;;;;;3.90;1.00;;;20.50;61.30;;;;;;5033712;28;20396;-65
2022/05/28 09:59:43;;;;;;;4.72;1.35;;;20.10;61.60;;;;;;5033533;28;20041;-63
2022/05/28 10:02:22;;;;;;;3.50;1.08;;;19.80;61.90;;;;;;5033726;28;20025;-68
2022/05/28 10:04:56;;;;;;;3.45;1.10;;;19.70;62.30;;;;;;5033761;28;20060;-66
2022/05/28 10:07:37;;;;;;;3.90;1.45;;;19.40;61.90;;;;;;5033547;28;20043;-60
2022/05/28 10:10:21;;;;;;;3.30;1.13;;;19.20;62.10;;;;;;5033795;28;20018;-65
2022/05/28 10:12:47;;;;;;;6.80;1.40;;;19.20;62.70;;;;;;5033462;28;20048;-61
2022/05/28 10:15:12;;;;;;;;;;;19.10;64.20;;;;;;5034207;28;20115;-62
2022/05/28 10:17:41;;;;;;;3.83;1.45;;;19.20;63.40;;;;;;5033601;28;19974;-60
2022/05/28 10:20:16;;;;;;;5.47;1.00;;;20.10;61.30;;;;;;5033353;28;20030;-60
2022/05/28 10:22:43;;;;;;;4.72;1.30;;;21.80;58.10;;;;;;5033562;28;20025;-61
2022/05/28 10:25:30;;;;;;;2.67;1.00;;;21.90;57.10;;;;;;5033199;28;20021;-62
2022/05/28 10:27:56;;;;;;;;;;;22.50;56.60;;;;;;5016495;28;20021;-59
2022/05/28 10:30:34;;;;;;;8.45;2.03;;;23.90;55.30;;;;;;5033617;28;19963;-61
2022/05/28 10:33:08;;;;;;;7.32;2.45;;;24.40;53.70;;;;;;5033678;28;20025;-61
2022/05/28 10:35:35;;;;;;;3.92;1.42;;;23.30;55.10;;;;;;5033789;28;20433;-61
2022/05/28 10:38:24;;;;;;;6.15;2.72;;;22.40;56.20;;;;;;5032958;28;20036;-60
2022/05/28 10:40:54;;;;;;;3.38;0.93;;;21.70;57.70;;;;;;5033222;28;20022;-61
2022/05/28 10:43:25;;;;;;;5.35;1.50;;;21.70;57.30;;;;;;5032786;28;20025;-62
2022/05/28 10:46:02;;;;;;;4.05;1.40;;;23.20;55.80;;;;;;5033120;28;20022;-62
2022/05/28 10:48:30;;;;;;;3.63;1.23;;;23.70;54.40;;;;;;5033260;28;20032;-62
2022/05/28 10:51:15;;;;;;;5.22;1.00;;;24.30;52.90;;;;;;5032792;28;20025;-62
2022/05/28 10:53:53;;;;;;;5.60;1.30;;;24.40;52.70;;;;;;5033364;28;20476;-60
2022/05/28 10:56:47;;;;;;;3.83;1.13;;;24.40;51.80;;;;;;5032658;28;20029;-60
2022/05/28 10:59:35;;;;;;;2.42;0.80;;;23.30;52.80;;;;;;5032712;28;20128;-59
2022/05/28 11:02:19;;;;;;;3.53;0.98;;;22.60;54.30;;;;;;5024767;28;20131;-61
2022/05/28 11:05:16;;;;;;;19.55;7.13;;;23.00;53.90;;;;;;5032981;28;20123;-60
2022/05/28 11:08:16;;;;;;;6.60;1.60;;;22.40;56.60;;;;;;4972532;28;20042;-60
2022/05/28 11:11:03;;;;;;;29.60;13.27;;;22.30;55.70;;;;;;4971988;28;20040;-62
2022/05/28 11:13:55;;;;;;;22.00;10.48;;;21.90;57.30;;;;;;4972183;28;20469;-60
2022/05/28 11:16:32;;;;;;;14.32;5.70;;;21.50;57.70;;;;;;4972680;28;20035;-61
2022/05/28 11:18:57;;;;;;;;;;;21.30;58.80;;;;;;4973072;28;20390;-62
2022/05/28 11:21:33;;;;;;;5.40;1.90;;;21.00;58.10;;;;;;4972323;28;19933;-62
2022/05/28 11:24:04;;;;;;;3.70;1.10;;;20.60;58.70;;;;;;4972287;28;20042;-56
2022/05/28 11:27:28;;;;;;;9.32;1.73;;;20.40;58.60;;;;;;4972044;28;20486;-59
2022/05/28 11:30:19;;;;;;;7.78;1.40;;;20.10;60.00;;;;;;4917024;29;20060;-61
2022/05/28 11:32:58;;;;;;;5.97;1.05;;;19.90;59.90;;;;;;4933661;29;20044;-58
2022/05/28 11:35:34;;;;;;;4.28;1.38;;;19.80;59.60;;;;;;4933652;29;20461;-60
2022/05/28 11:38:07;;;;;;;4.28;1.20;;;19.70;60.20;;;;;;4933547;29;20446;-60
2022/05/28 11:40:47;;;;;;;2.55;1.35;;;19.70;60.80;;;;;;4936587;29;20075;-60
2022/05/28 11:43:20;;;;;;;5.70;1.40;;;19.80;61.20;;;;;;4946286;28;20533;-59
2022/05/28 11:46:00;;;;;;;5.63;1.50;;;19.90;61.20;;;;;;4995027;28;20552;-60
2022/05/28 11:51:55;;;;;;;5.53;1.42;;;20.30;61.30;;;;;;4995229;28;20026;-59
2022/05/28 11:54:29;;;;;;;5.50;1.15;;;20.50;60.00;;;;;;4995151;28;20033;-62
2022/05/28 11:57:00;;;;;;;3.13;0.95;;;20.70;60.70;;;;;;4994878;28;20030;-60
2022/05/28 11:59:27;;;;;;;4.10;1.25;;;21.00;59.40;;;;;;4994570;28;20038;-61
2022/05/28 12:02:11;;;;;;;3.47;0.95;;;20.90;59.00;;;;;;4994681;28;20081;-59
2022/05/28 12:04:43;;;;;;;5.10;1.30;;;20.70;58.70;;;;;;4994878;28;20037;-60
2022/05/28 12:07:35;;;;;;;4.28;0.95;;;20.50;59.90;;;;;;5035840;28;20445;-58
2022/05/28 12:10:05;;;;;;;4.40;1.10;;;20.70;59.50;;;;;;5035475;28;20083;-61
2022/05/28 12:12:50;;;;;;;2.08;0.68;;;20.80;57.70;;;;;;5035865;28;20021;-61
2022/05/28 12:15:16;;;;;;;5.47;2.28;;;21.00;55.60;;;;;;5035798;28;20192;-58
2022/05/28 12:17:54;;;;;;;3.63;0.85;;;21.30;55.50;;;;;;5035786;28;20057;-61
2022/05/28 12:20:29;;;;;;;3.22;1.00;;;21.40;55.30;;;;;;5035770;28;20029;-59
2022/05/28 12:23:00;;;;;;;5.40;1.15;;;21.30;56.10;;;;;;5035868;28;20079;-60
2022/05/28 12:25:28;;;;;;;2.05;0.77;;;21.30;55.80;;;;;;5035852;28;20053;-60
2022/05/28 12:27:54;;;;;;;4.53;1.13;;;21.30;55.80;;;;;;5035702;28;20022;-59
2022/05/28 12:30:29;;;;;;;3.95;0.88;;;21.40;56.70;;;;;;5035504;28;20019;-58
2022/05/28 12:32:57;;;;;;;4.30;0.95;;;21.50;56.80;;;;;;5035601;28;20036;-60
2022/05/28 12:35:22;;;;;;;5.50;1.33;;;21.60;56.50;;;;;;5035907;28;20021;-60
2022/05/28 12:38:08;;;;;;;3.75;1.02;;;21.70;56.50;;;;;;5035671;28;20033;-62
2022/05/28 12:40:48;;;;;;;3.85;1.00;;;21.50;56.90;;;;;;5035704;28;20384;-63
2022/05/28 12:43:31;;;;;;;3.33;1.20;;;21.40;57.00;;;;;;5035932;28;20046;-63
2022/05/28 12:45:58;;;;;;;5.13;1.00;;;21.30;57.10;;;;;;5036025;28;20037;-62
2022/05/28 12:48:31;;;;;;;3.47;1.10;;;21.30;56.90;;;;;;5035532;28;20476;-61
2022/05/28 12:51:01;;;;;;;3.47;1.02;;;21.10;57.30;;;;;;5017504;28;20120;-63
2022/05/28 12:53:34;;;;;;;3.75;1.02;;;21.00;57.20;;;;;;5035976;28;20036;-59
2022/05/28 12:56:20;;;;;;;3.03;1.27;;;20.80;58.30;;;;;;5035604;28;20029;-60
2022/05/28 12:58:45;;;;;;;3.13;1.20;;;20.90;58.30;;;;;;5035113;28;20522;-60
2022/05/28 13:01:51;;;;;;;3.55;0.80;;;21.10;57.90;;;;;;5035960;28;20026;-61
2022/05/28 13:04:19;;;;;;;5.45;0.98;;;21.10;56.90;;;;;;5012136;28;20037;-64
2022/05/28 13:06:54;;;;;;;2.38;0.70;;;20.90;56.60;;;;;;5036782;28;20053;-59
2022/05/28 13:09:25;;;;;;;2.97;0.98;;;20.80;57.50;;;;;;5037369;28;20026;-61
2022/05/28 13:11:57;;;;;;;4.55;0.98;;;21.00;58.40;;;;;;5038234;28;20048;-60
2022/05/28 13:14:31;;;;;;;4.70;0.90;;;21.10;58.40;;;;;;5037243;28;20021;-61
2022/05/28 13:17:07;;;;;;;4.38;1.42;;;21.00;57.80;;;;;;5037529;28;20022;-60